createdAt,value
2022-10-02T00:04:33.134Z,1008.7
2022-10-02T00:09:33.027Z,1008.7
2022-10-02T00:14:33.041Z,1008.7
2022-10-02T00:19:33.047Z,1008.8
2022-10-02T00:24:33.017Z,1008.8
2022-10-02T00:29:33.045Z,1008.9
2022-10-02T00:34:33.031Z,1008.9
2022-10-02T00:39:33.033Z,1009.0
2022-10-02T00:44:33.047Z,1009.0
2022-10-02T00:49:33.031Z,1009.0
2022-10-02T00:54:33.060Z,1009.0
2022-10-02T00:59:33.096Z,1009.1
2022-10-02T01:04:33.076Z,1009.2
2022-10-02T01:09:33.017Z,1009.2
2022-10-02T01:14:33.093Z,1009.3
2022-10-02T01:19:33.026Z,1009.3
2022-10-02T01:24:33.050Z,1009.4
2022-10-02T01:29:33.089Z,1009.4
2022-10-02T01:34:33.045Z,1009.4
2022-10-02T01:39:33.022Z,1009.5
2022-10-02T01:44:33.073Z,1009.5
2022-10-02T01:49:33.058Z,1009.6
2022-10-02T01:54:33.038Z,1009.6
2022-10-02T01:59:33.056Z,1009.8
2022-10-02T02:04:33.051Z,1009.9
2022-10-02T02:09:33.054Z,1009.8
2022-10-02T02:14:33.060Z,1009.8
2022-10-02T02:19:33.054Z,1009.8
2022-10-02T02:24:33.064Z,1009.7
2022-10-02T02:29:33.050Z,1009.8
2022-10-02T02:34:33.055Z,1010.0
2022-10-02T02:39:33.056Z,1010.1
2022-10-02T02:44:33.053Z,1010.1
2022-10-02T02:49:33.055Z,1010.0
2022-10-02T02:54:33.058Z,1009.9
2022-10-02T02:59:33.054Z,1009.9
2022-10-02T03:04:33.060Z,1010.1
2022-10-02T03:09:33.062Z,1010.1
2022-10-02T03:14:33.058Z,1010.1
2022-10-02T03:19:33.060Z,1010.3
2022-10-02T03:24:33.061Z,1010.3
2022-10-02T03:29:33.056Z,1010.4
2022-10-02T03:34:33.059Z,1010.5
2022-10-02T03:39:33.062Z,1010.5
2022-10-02T03:44:33.060Z,1010.4
2022-10-02T03:49:33.028Z,1010.5
2022-10-02T03:54:33.063Z,1010.6
2022-10-02T03:59:33.062Z,1010.7
2022-10-02T04:04:33.066Z,1010.7
2022-10-02T04:09:33.064Z,1010.8
2022-10-02T04:14:33.071Z,1010.8
2022-10-02T04:19:33.064Z,1010.8
2022-10-02T04:24:33.070Z,1010.9
2022-10-02T04:29:33.067Z,1010.9
2022-10-02T04:34:33.072Z,1010.9
2022-10-02T04:39:33.077Z,1010.9
2022-10-02T04:44:33.071Z,1011.0
2022-10-02T04:49:33.067Z,1011.2
2022-10-02T04:54:33.080Z,1011.2
2022-10-02T04:59:33.072Z,1011.4
2022-10-02T05:04:33.071Z,1011.3
2022-10-02T05:09:33.067Z,1011.4
2022-10-02T05:14:33.075Z,1011.6
2022-10-02T05:19:33.072Z,1011.7
2022-10-02T05:24:33.075Z,1011.8
2022-10-02T05:29:33.075Z,1011.8
2022-10-02T05:34:33.073Z,1011.9
2022-10-02T05:39:33.077Z,1012.0
2022-10-02T05:44:33.075Z,1012.0
2022-10-02T05:49:33.074Z,1012.0
2022-10-02T05:54:33.078Z,1012.1
2022-10-02T05:59:33.075Z,1012.2
2022-10-02T06:04:33.081Z,1012.3
2022-10-02T06:09:33.084Z,1012.4
2022-10-02T06:14:33.075Z,1012.5
2022-10-02T06:19:33.078Z,1012.7
2022-10-02T06:24:33.075Z,1012.8
2022-10-02T06:29:33.044Z,1012.9
2022-10-02T06:34:33.084Z,1012.9
2022-10-02T06:39:33.151Z,1013.0
2022-10-02T06:44:33.155Z,1013.0
2022-10-02T06:49:33.157Z,1013.1
2022-10-02T06:54:33.054Z,1013.1
2022-10-02T06:59:33.056Z,1013.1
2022-10-02T07:04:33.151Z,1013.3
2022-10-02T07:09:33.068Z,1013.4
2022-10-02T07:14:33.092Z,1013.5
2022-10-02T07:19:33.088Z,1013.5
2022-10-02T07:24:33.096Z,1013.5
2022-10-02T07:29:33.067Z,1013.5
2022-10-02T07:34:33.085Z,1013.6
2022-10-02T07:39:33.086Z,1013.8
2022-10-02T07:44:33.057Z,1013.9
2022-10-02T07:49:33.077Z,1013.9
2022-10-02T07:54:33.120Z,1014.0
2022-10-02T07:59:33.119Z,1014.1
2022-10-02T08:04:36.878Z,1014.1
2022-10-02T08:09:33.030Z,1014.1
2022-10-02T08:14:33.031Z,1014.2
2022-10-02T08:19:33.021Z,1014.3
2022-10-02T08:24:33.091Z,1014.4
2022-10-02T08:29:33.032Z,1014.4
2022-10-02T08:34:33.065Z,1014.4
2022-10-02T08:39:33.019Z,1014.5
2022-10-02T08:44:36.182Z,1014.6
2022-10-02T08:49:33.025Z,1014.6
2022-10-02T08:54:33.043Z,1014.8
2022-10-02T08:59:33.028Z,1014.8
2022-10-02T09:04:33.039Z,1014.9
2022-10-02T09:09:33.039Z,1014.9
2022-10-02T09:14:33.012Z,1014.9
2022-10-02T09:19:33.001Z,1015.1
2022-10-02T09:24:33.050Z,1015.1
2022-10-02T09:29:33.040Z,1015.3
2022-10-02T09:34:33.051Z,1015.3
2022-10-02T09:39:33.052Z,1015.3
2022-10-02T09:44:33.049Z,1015.3
2022-10-02T09:49:33.031Z,1015.3
2022-10-02T09:54:33.060Z,1015.4
2022-10-02T09:59:33.038Z,1015.5
2022-10-02T10:04:47.854Z,1015.5
2022-10-02T10:09:33.034Z,1015.6
2022-10-02T10:14:33.055Z,1015.6
2022-10-02T10:19:33.041Z,1015.6
2022-10-02T10:24:33.044Z,1015.6
2022-10-02T10:29:33.050Z,1015.7
2022-10-02T10:34:33.066Z,1015.6
2022-10-02T10:39:33.033Z,1015.7
2022-10-02T10:44:33.057Z,1015.8
2022-10-02T10:49:33.044Z,1015.8
2022-10-02T10:54:33.057Z,1015.8
2022-10-02T10:59:33.059Z,1015.9
2022-10-02T11:04:33.058Z,1016.0
2022-10-02T11:09:33.049Z,1016.1
2022-10-02T11:14:33.064Z,1016.1
2022-10-02T11:19:33.057Z,1016.2
2022-10-02T11:24:33.073Z,1016.2
2022-10-02T11:29:33.062Z,1016.3
2022-10-02T11:34:33.063Z,1016.3
2022-10-02T11:39:33.052Z,1016.3
2022-10-02T11:44:33.079Z,1016.3
2022-10-02T11:49:33.062Z,1016.4
2022-10-02T11:54:33.087Z,1016.4
2022-10-02T11:59:33.080Z,1016.4
2022-10-02T12:04:33.104Z,1016.4
2022-10-02T12:09:33.066Z,1016.5
2022-10-02T12:14:33.085Z,1016.6
2022-10-02T12:19:33.073Z,1016.7
2022-10-02T12:24:33.087Z,1016.8
2022-10-02T12:29:33.089Z,1016.8
2022-10-02T12:34:33.077Z,1016.9
2022-10-02T12:39:33.077Z,1017.0
2022-10-02T12:44:33.097Z,1017.1
2022-10-02T12:49:33.078Z,1017.1
2022-10-02T12:54:33.093Z,1017.3
2022-10-02T12:59:33.091Z,1017.4
2022-10-02T13:04:33.094Z,1017.4
2022-10-02T13:09:33.077Z,1017.4
2022-10-02T13:14:33.101Z,1017.5
2022-10-02T13:19:33.079Z,1017.5
2022-10-02T13:24:33.088Z,1017.6
2022-10-02T13:29:33.095Z,1017.6
2022-10-02T13:34:38.196Z,1017.5
2022-10-02T13:39:33.095Z,1017.7
2022-10-02T13:44:33.098Z,1017.6
2022-10-02T13:49:33.090Z,1017.7
2022-10-02T13:54:33.104Z,1017.7
2022-10-02T13:59:33.110Z,1017.7
2022-10-02T14:04:33.105Z,1017.7
2022-10-02T14:09:33.095Z,1017.8
2022-10-02T14:14:33.112Z,1017.9
2022-10-02T14:19:33.105Z,1018.0
2022-10-02T14:24:33.121Z,1017.9
2022-10-02T14:29:33.116Z,1017.9
2022-10-02T14:34:33.119Z,1018.0
2022-10-02T14:39:33.112Z,1018.0
2022-10-02T14:44:33.103Z,1018.0
2022-10-02T14:49:33.114Z,1018.1
2022-10-02T14:54:33.095Z,1018.1
2022-10-02T14:59:33.112Z,1018.2
2022-10-02T15:04:33.142Z,1018.2
2022-10-02T15:09:33.116Z,1018.1
2022-10-02T15:14:33.127Z,1018.2
2022-10-02T15:19:33.179Z,1018.3
2022-10-02T15:24:33.223Z,1018.4
2022-10-02T15:29:33.123Z,1018.5
2022-10-02T15:34:33.126Z,1018.5
2022-10-02T15:39:33.123Z,1018.5
2022-10-02T15:44:33.121Z,1018.6
2022-10-02T15:49:33.116Z,1018.6
2022-10-02T15:54:33.131Z,1018.7
2022-10-02T15:59:33.120Z,1018.8
2022-10-02T16:04:33.138Z,1018.9
2022-10-02T16:09:33.129Z,1019.0
2022-10-02T16:14:33.126Z,1019.0
2022-10-02T16:19:33.128Z,1019.1
2022-10-02T16:24:33.143Z,1019.2
2022-10-02T16:29:33.119Z,1019.2
2022-10-02T16:34:33.133Z,1019.3
2022-10-02T16:39:33.137Z,1019.4
2022-10-02T16:44:33.140Z,1019.4
2022-10-02T16:49:33.132Z,1019.4
2022-10-02T16:54:33.138Z,1019.5
2022-10-02T16:59:33.137Z,1019.5
2022-10-02T17:04:33.125Z,1019.5
2022-10-02T17:09:33.150Z,1019.5
2022-10-02T17:14:33.150Z,1019.6
2022-10-02T17:19:33.137Z,1019.7
2022-10-02T17:24:33.143Z,1019.8
2022-10-02T17:29:33.139Z,1019.8
2022-10-02T17:34:33.153Z,1019.8
2022-10-02T17:39:33.166Z,1019.9
2022-10-02T17:44:33.142Z,1020.0
2022-10-02T17:49:33.152Z,1020.1
2022-10-02T17:54:33.155Z,1020.3
2022-10-02T17:59:33.154Z,1020.4
2022-10-02T18:04:33.157Z,1020.5
2022-10-02T18:09:33.144Z,1020.6
2022-10-02T18:14:33.156Z,1020.6
2022-10-02T18:19:33.162Z,1020.6
2022-10-02T18:24:33.176Z,1020.6
2022-10-02T18:29:33.174Z,1020.6
2022-10-02T18:34:33.201Z,1020.6
2022-10-02T18:39:33.164Z,1020.6
2022-10-02T18:44:33.179Z,1020.7
2022-10-02T18:49:33.169Z,1020.9
2022-10-02T18:54:33.176Z,1021.0
2022-10-02T18:59:33.183Z,1021.1
2022-10-02T19:04:33.178Z,1021.3
2022-10-02T19:09:33.189Z,1021.3
2022-10-02T19:14:33.195Z,1021.3
2022-10-02T19:19:33.186Z,1021.3
2022-10-02T19:24:33.205Z,1021.4
2022-10-02T19:29:33.188Z,1021.4
2022-10-02T19:34:33.191Z,1021.4
2022-10-02T19:39:33.182Z,1021.4
2022-10-02T19:44:33.220Z,1021.5
2022-10-02T19:49:33.182Z,1021.6
2022-10-02T19:54:33.197Z,1021.5
2022-10-02T19:59:33.200Z,1021.5
2022-10-02T20:04:33.221Z,1021.6
2022-10-02T20:09:33.264Z,1021.5
2022-10-02T20:14:33.266Z,1021.5
2022-10-02T20:19:33.230Z,1021.6
2022-10-02T20:24:33.234Z,1021.7
2022-10-02T20:29:33.269Z,1021.8
2022-10-02T20:34:33.267Z,1021.8
2022-10-02T20:39:33.233Z,1021.8
2022-10-02T20:44:33.272Z,1021.8
2022-10-02T20:49:33.267Z,1022.0
2022-10-02T20:54:33.237Z,1022.0
2022-10-02T20:59:33.272Z,1022.0
2022-10-02T21:04:33.274Z,1022.1
2022-10-02T21:09:33.245Z,1022.2
2022-10-02T21:14:33.282Z,1022.3
2022-10-02T21:19:33.239Z,1022.4
2022-10-02T21:24:33.280Z,1022.4
2022-10-02T21:29:33.278Z,1022.5
2022-10-02T21:34:33.277Z,1022.5
2022-10-02T21:39:33.246Z,1022.5
2022-10-02T21:44:33.285Z,1022.5
2022-10-02T21:49:33.251Z,1022.6
2022-10-02T21:54:33.289Z,1022.5
2022-10-02T21:59:33.282Z,1022.6
2022-10-02T22:04:33.286Z,1022.5
2022-10-02T22:09:33.255Z,1022.6
2022-10-02T22:14:33.292Z,1022.6
2022-10-02T22:19:33.255Z,1022.6
2022-10-02T22:24:33.296Z,1022.7
2022-10-02T22:29:33.296Z,1022.6
2022-10-02T22:34:33.397Z,1022.6
2022-10-02T22:39:33.261Z,1022.5
2022-10-02T22:44:33.300Z,1022.5
2022-10-02T22:49:33.268Z,1022.6
2022-10-02T22:54:33.303Z,1022.5
2022-10-02T22:59:33.321Z,1022.6
2022-10-02T23:04:33.303Z,1022.7
2022-10-02T23:09:33.306Z,1022.7
2022-10-02T23:14:33.309Z,1022.7
2022-10-02T23:19:33.273Z,1022.7
2022-10-02T23:24:33.307Z,1022.7
2022-10-02T23:29:33.309Z,1022.7
2022-10-02T23:34:33.309Z,1022.7
2022-10-02T23:39:33.292Z,1022.6
2022-10-02T23:44:33.311Z,1022.6
2022-10-02T23:49:33.283Z,1022.6
2022-10-02T23:54:33.321Z,1022.5
2022-10-02T23:59:33.336Z,1022.6
